Cwmafan, United Kingdom

4:27 PM GMT on March 27, 2015 (GMT +0000)
INEATHPO2 | | Change Station
CLOSE
Current Station
Personal Weather Station
Location: Cwmavon, Port Talbot
Elevation: 216 ft
Nearby Weather Stations

Elev 216 ft 51.61 °N, 3.76 °W | Updated 26 seconds ago

Overcast
Overcast
49.5 °F
Feels Like 50 °F
N
0.0
Wind Variable Wind from East
Gusts 4.0 mph

Today
High -- | Low -- °F
--% Chance of Precip.
Yesterday
High -- | Low -- °F
Precip. -- in
6:02 AM 6:39 PM
First Quarter, 54% visible
Pressure 30.09 in
Visibility 6.2 miles
Clouds Overcast 3000 ft
Windchill 50 °F
Dew Point 39 °F
Humidity 67%
Rainfall 0.00 in
Snow Depth Not available.
UV 0 out of 12
Pollen Not available.
Air Quality Not available.
Flu Activity Not available.
METAR EGFF 271620Z AUTO VRB02KT 9999 OVC030 10/04 Q1019

More Conditions Fewer Conditions

Pressure 30.09 in
Visibility 6.2 miles
Clouds Overcast 3000 ft
Windchill 50 °F
Dew Point 39 °F
Humidity 67%
Rainfall 0.00 in
Snow Depth Not available.
UV 0 out of 12
Pollen Not available.
Air Quality Not available.
Flu Activity Not available.
METAR EGFF 271620Z AUTO VRB02KT 9999 OVC030 10/04 Q1019

More Conditions Fewer Conditions

10-Day Weather Forecast

Almanac

Astronomy

Mar. 27, 2015 Rise Set
Actual Time
Civil Twilight
Nautical Twilight
Astronomical Twilight
Moon
Length of Visible Light
Length of Day
Tomorrow will be .
, % of the Moon is Illuminated

Today's Extremes

Country Highs Country Lows

Community

WunderPhotos

Upload Photos

1,808,770 photos uploaded!

WunderBlogs® & News

Nearby

Air Quality

  Air Quality AQ Index Pollutant
Not available.

Snow Depth

Station Depth Elevation

Earthquake Activity

City Distance Mag. Time & Date
Minimum magnitude displayed is 2.5.

Coastal Water Temperatures

Place Temperature

Stations

Nearby Weather Stations

Station Location Temp. Windchill Dew Point Humidity Wind Precip. Elev Updated Type